createdAt,value
2022-11-24T00:00:09.904Z,2.69
2022-11-24T00:01:09.879Z,2.69
2022-11-24T00:02:11.231Z,2.73
2022-11-24T00:03:10.021Z,2.74
2022-11-24T00:04:09.844Z,2.76
2022-11-24T00:05:09.803Z,2.77
2022-11-24T00:06:09.852Z,2.79
2022-11-24T00:07:09.821Z,2.79
2022-11-24T00:08:10.027Z,2.79
2022-11-24T00:09:09.805Z,2.79
2022-11-24T00:10:09.786Z,2.79
2022-11-24T00:11:09.777Z,2.81
2022-11-24T00:12:09.759Z,2.84
2022-11-24T00:13:11.197Z,2.82
2022-11-24T00:14:09.688Z,2.84
2022-11-24T00:15:09.756Z,2.87
2022-11-24T00:16:09.671Z,2.84
2022-11-24T00:17:09.728Z,2.87
2022-11-24T00:18:09.643Z,2.88
2022-11-24T00:19:10.460Z,2.89
2022-11-24T00:20:09.637Z,2.89
2022-11-24T00:21:09.797Z,2.91
2022-11-24T00:22:09.680Z,2.91
2022-11-24T00:23:10.587Z,2.92
2022-11-24T00:24:09.573Z,2.92
2022-11-24T00:25:09.613Z,2.94
2022-11-24T00:26:09.595Z,2.94
2022-11-24T00:27:09.616Z,2.92
2022-11-24T00:28:09.530Z,2.97
2022-11-24T00:29:09.508Z,3.00
2022-11-24T00:30:09.488Z,3.00
2022-11-24T00:31:13.910Z,3.02
2022-11-24T00:32:10.566Z,3.02
2022-11-24T00:33:09.501Z,2.98
2022-11-24T00:34:09.472Z,3.02
2022-11-24T00:35:09.578Z,3.02
2022-11-24T00:36:09.445Z,3.03
2022-11-24T00:37:09.421Z,3.03
2022-11-24T00:38:09.537Z,3.05
2022-11-24T00:39:09.702Z,3.09
2022-11-24T00:40:09.357Z,3.09
2022-11-24T00:41:09.342Z,3.10
2022-11-24T00:42:09.485Z,3.12
2022-11-24T00:43:09.392Z,3.13
2022-11-24T00:44:09.371Z,3.16
2022-11-24T00:45:13.939Z,3.20
2022-11-24T00:46:10.401Z,3.21
2022-11-24T00:47:09.444Z,3.23
2022-11-24T00:48:09.772Z,3.21
2022-11-24T00:49:10.140Z,3.24
2022-11-24T00:50:10.041Z,3.24
2022-11-24T00:51:10.661Z,3.27
2022-11-24T00:52:09.356Z,3.25
2022-11-24T00:53:09.202Z,3.28
2022-11-24T00:54:09.220Z,3.28
2022-11-24T00:55:09.206Z,3.28
2022-11-24T00:56:09.194Z,3.28
2022-11-24T00:57:09.143Z,3.30
2022-11-24T00:58:09.122Z,3.30
2022-11-24T00:59:09.134Z,3.30
2022-11-24T01:00:09.131Z,3.31
2022-11-24T01:01:10.273Z,3.33
2022-11-24T01:02:09.149Z,3.33
2022-11-24T01:03:09.177Z,3.34
2022-11-24T01:04:09.092Z,3.36
2022-11-24T01:05:09.131Z,3.39
2022-11-24T01:06:09.050Z,3.39
2022-11-24T01:07:09.100Z,3.40
2022-11-24T01:08:09.011Z,3.42
2022-11-24T01:09:09.065Z,3.43
2022-11-24T01:10:09.451Z,3.43
2022-11-24T01:11:09.012Z,3.44
2022-11-24T01:12:08.952Z,3.46
2022-11-24T01:13:08.948Z,3.47
2022-11-24T01:14:09.008Z,3.50
2022-11-24T01:15:08.924Z,3.50
2022-11-24T01:16:08.934Z,3.53
2022-11-24T01:17:09.113Z,3.53
2022-11-24T01:18:08.873Z,3.54
2022-11-24T01:19:08.988Z,3.54
2022-11-24T01:20:08.842Z,3.58
2022-11-24T01:21:10.408Z,3.60
2022-11-24T01:22:08.833Z,3.61
2022-11-24T01:23:09.942Z,3.62
2022-11-24T01:24:08.808Z,3.65
2022-11-24T01:25:08.834Z,3.65
2022-11-24T01:26:08.773Z,3.67
2022-11-24T01:27:08.796Z,3.68
2022-11-24T01:28:08.737Z,3.70
2022-11-24T01:29:10.187Z,3.71
2022-11-24T01:30:09.695Z,3.71
2022-11-24T01:31:08.741Z,3.75
2022-11-24T01:32:08.967Z,3.76
2022-11-24T01:33:08.694Z,3.79
2022-11-24T01:34:08.687Z,3.82
2022-11-24T01:35:08.670Z,3.83
2022-11-24T01:36:08.716Z,3.85
2022-11-24T01:37:08.655Z,3.88
2022-11-24T01:38:08.635Z,3.89
2022-11-24T01:39:08.618Z,3.92
2022-11-24T01:40:08.615Z,3.96
2022-11-24T01:41:08.599Z,3.98
2022-11-24T01:42:08.648Z,3.98
2022-11-24T01:43:08.533Z,4.01
2022-11-24T01:44:08.557Z,4.00
2022-11-24T01:45:08.537Z,4.03
2022-11-24T01:46:08.552Z,4.07
2022-11-24T01:47:08.510Z,4.07
2022-11-24T01:48:08.576Z,4.08
2022-11-24T01:49:08.650Z,4.07
2022-11-24T01:50:08.851Z,4.10
2022-11-24T01:51:08.937Z,4.08
2022-11-24T01:52:08.528Z,4.07
2022-11-24T01:53:08.450Z,4.07
2022-11-24T01:54:08.410Z,4.08
2022-11-24T01:55:09.301Z,4.08
2022-11-24T01:56:08.984Z,4.08
2022-11-24T01:57:08.362Z,4.08
2022-11-24T01:58:08.356Z,4.06
2022-11-24T01:59:08.386Z,4.04
2022-11-24T02:00:08.342Z,4.06
2022-11-24T02:01:08.416Z,4.04
2022-11-24T02:02:08.735Z,4.03
2022-11-24T02:03:08.379Z,4.01
2022-11-24T02:04:08.295Z,3.97
2022-11-24T02:05:08.373Z,3.94
2022-11-24T02:06:08.291Z,3.92
2022-11-24T02:07:08.315Z,3.89
2022-11-24T02:08:08.318Z,3.85
2022-11-24T02:09:08.377Z,3.83
2022-11-24T02:10:08.209Z,3.82
2022-11-24T02:11:08.233Z,3.82
2022-11-24T02:12:08.205Z,3.79
2022-11-24T02:13:08.164Z,3.76
2022-11-24T02:14:08.223Z,3.75
2022-11-24T02:15:08.141Z,3.71
2022-11-24T02:16:08.190Z,3.71
2022-11-24T02:17:08.285Z,3.70
2022-11-24T02:18:08.141Z,3.68
2022-11-24T02:19:08.141Z,3.67
2022-11-24T02:20:08.107Z,3.62
2022-11-24T02:21:08.071Z,3.62
2022-11-24T02:22:08.073Z,3.62
2022-11-24T02:23:08.096Z,3.60
2022-11-24T02:24:08.032Z,3.61
2022-11-24T02:25:08.038Z,3.64
2022-11-24T02:26:08.035Z,3.64
2022-11-24T02:27:08.040Z,3.60
2022-11-24T02:28:07.992Z,3.53
2022-11-24T02:29:07.950Z,3.52
2022-11-24T02:30:07.984Z,3.49
2022-11-24T02:31:08.187Z,3.47
2022-11-24T02:32:07.939Z,3.44
2022-11-24T02:33:07.945Z,3.42
2022-11-24T02:34:08.043Z,3.39
2022-11-24T02:35:07.916Z,3.34
2022-11-24T02:36:07.885Z,3.33
2022-11-24T02:37:07.851Z,3.33
2022-11-24T02:38:07.948Z,3.36
2022-11-24T02:39:07.850Z,3.34
2022-11-24T02:40:07.801Z,3.33
2022-11-24T02:41:07.794Z,3.36
2022-11-24T02:42:07.872Z,3.40
2022-11-24T02:43:07.808Z,3.43
2022-11-24T02:44:07.754Z,3.46
2022-11-24T02:45:07.741Z,3.47
2022-11-24T02:46:07.769Z,3.52
2022-11-24T02:47:07.742Z,3.52
2022-11-24T02:48:07.714Z,3.53
2022-11-24T02:49:07.688Z,3.53
2022-11-24T02:50:07.696Z,3.53
2022-11-24T02:51:08.664Z,3.54
2022-11-24T02:52:08.414Z,3.54
2022-11-24T02:53:08.485Z,3.54
2022-11-24T02:54:07.634Z,3.54
2022-11-24T02:55:07.653Z,3.57
2022-11-24T02:56:07.633Z,3.57
2022-11-24T02:57:07.589Z,3.54
2022-11-24T02:58:07.668Z,3.57
2022-11-24T02:59:07.602Z,3.54
2022-11-24T03:00:07.557Z,3.54
2022-11-24T03:01:07.628Z,3.52
2022-11-24T03:02:07.545Z,3.49
2022-11-24T03:03:07.627Z,3.49
2022-11-24T03:04:07.547Z,3.44
2022-11-24T03:05:07.496Z,3.46
2022-11-24T03:06:07.504Z,3.43
2022-11-24T03:07:07.522Z,3.47
2022-11-24T03:08:07.446Z,3.47
2022-11-24T03:09:07.557Z,3.50
2022-11-24T03:10:07.492Z,3.52
2022-11-24T03:11:08.278Z,3.54
2022-11-24T03:12:08.187Z,3.57
2022-11-24T03:13:07.374Z,3.61
2022-11-24T03:14:07.396Z,3.64
2022-11-24T03:15:07.467Z,3.65
2022-11-24T03:16:07.487Z,3.68
2022-11-24T03:17:07.335Z,3.71
2022-11-24T03:18:07.322Z,3.76
2022-11-24T03:19:07.327Z,3.80
2022-11-24T03:20:07.500Z,3.85
2022-11-24T03:21:08.289Z,3.88
2022-11-24T03:22:07.307Z,3.90
2022-11-24T03:23:07.245Z,3.92
2022-11-24T03:24:07.429Z,3.96
2022-11-24T03:25:07.237Z,3.96
2022-11-24T03:26:07.219Z,3.98
2022-11-24T03:27:07.197Z,4.00
2022-11-24T03:28:07.193Z,4.04
2022-11-24T03:29:07.248Z,4.07
2022-11-24T03:30:07.200Z,4.08
2022-11-24T03:31:07.259Z,4.12
2022-11-24T03:32:07.161Z,4.16
2022-11-24T03:33:07.164Z,4.16
2022-11-24T03:34:07.151Z,4.18
2022-11-24T03:35:07.189Z,4.19
2022-11-24T03:36:07.090Z,4.21
2022-11-24T03:37:07.098Z,4.19
2022-11-24T03:38:07.083Z,4.19
2022-11-24T03:39:07.049Z,4.19
2022-11-24T03:40:07.127Z,4.19
2022-11-24T03:41:07.051Z,4.18
2022-11-24T03:42:07.001Z,4.21
2022-11-24T03:43:07.094Z,4.25
2022-11-24T03:44:07.030Z,4.24
2022-11-24T03:46:08.005Z,4.26
2022-11-24T03:47:06.962Z,4.29
2022-11-24T03:48:06.918Z,4.33
2022-11-24T03:49:06.911Z,4.33
2022-11-24T03:50:06.975Z,4.33
2022-11-24T03:51:06.962Z,4.32
2022-11-24T03:52:08.343Z,4.33
2022-11-24T03:53:06.920Z,4.33
2022-11-24T03:54:06.854Z,4.32
2022-11-24T03:55:06.836Z,4.33
2022-11-24T03:56:06.825Z,4.36
2022-11-24T03:57:06.833Z,4.39
2022-11-24T03:58:06.845Z,4.39
2022-11-24T03:59:06.921Z,4.43
2022-11-24T04:00:06.878Z,4.43
2022-11-24T04:01:06.794Z,4.44
2022-11-24T04:02:08.067Z,4.44
2022-11-24T04:03:07.928Z,4.47
2022-11-24T04:04:06.829Z,4.47
2022-11-24T04:05:06.748Z,4.50
2022-11-24T04:06:06.723Z,4.50
2022-11-24T04:07:07.152Z,4.50
2022-11-24T04:08:06.732Z,4.51
2022-11-24T04:09:06.760Z,4.51
2022-11-24T04:10:06.660Z,4.52
2022-11-24T04:11:06.687Z,4.54
2022-11-24T04:12:07.658Z,4.52
2022-11-24T04:13:06.706Z,4.52
2022-11-24T04:14:11.987Z,4.54
2022-11-24T04:15:07.634Z,4.54
2022-11-24T04:16:06.631Z,4.55
2022-11-24T04:17:06.634Z,4.55
2022-11-24T04:18:06.567Z,4.57
2022-11-24T04:19:06.589Z,4.58
2022-11-24T04:20:06.542Z,4.59
2022-11-24T04:21:06.528Z,4.61
2022-11-24T04:22:06.564Z,4.62
2022-11-24T04:23:06.592Z,4.64
2022-11-24T04:24:06.504Z,4.64
2022-11-24T04:25:06.478Z,4.67
2022-11-24T04:26:06.519Z,4.69
2022-11-24T04:27:06.592Z,4.67
2022-11-24T04:28:07.546Z,4.70
2022-11-24T04:29:06.494Z,4.72
2022-11-24T04:30:06.396Z,4.70
2022-11-24T04:31:06.547Z,4.69
2022-11-24T04:32:07.006Z,4.69
2022-11-24T04:33:06.364Z,4.67
2022-11-24T04:34:06.395Z,4.65
2022-11-24T04:35:06.756Z,4.65
2022-11-24T04:36:06.417Z,4.65
2022-11-24T04:37:06.320Z,4.65
2022-11-24T04:38:07.100Z,4.65
2022-11-24T04:39:19.865Z,4.62
2022-11-24T04:40:07.280Z,4.61
2022-11-24T04:41:06.503Z,4.59
2022-11-24T04:42:06.271Z,4.58
2022-11-24T04:43:06.218Z,4.58
2022-11-24T04:44:07.006Z,4.55
2022-11-24T04:45:06.208Z,4.54
2022-11-24T04:46:06.278Z,4.54
2022-11-24T04:47:06.233Z,4.52
2022-11-24T04:48:06.179Z,4.52
2022-11-24T04:49:06.258Z,4.50
2022-11-24T04:50:06.322Z,4.47
2022-11-24T04:51:06.142Z,4.46
2022-11-24T04:52:06.122Z,4.46
2022-11-24T04:53:06.183Z,4.46
2022-11-24T04:54:06.990Z,4.44
2022-11-24T04:55:06.069Z,4.44
2022-11-24T04:56:07.013Z,4.47
2022-11-24T04:57:06.050Z,4.50
2022-11-24T04:58:06.022Z,4.51
2022-11-24T04:59:08.366Z,4.54
2022-11-24T05:00:06.011Z,4.58
2022-11-24T05:01:06.312Z,4.58
2022-11-24T05:02:06.053Z,4.59
2022-11-24T05:03:06.013Z,4.64
2022-11-24T05:04:06.397Z,4.65
2022-11-24T05:05:05.929Z,4.70
2022-11-24T05:06:05.991Z,4.75
2022-11-24T05:07:06.022Z,4.77
2022-11-24T05:08:05.885Z,4.76
2022-11-24T05:09:05.869Z,4.77
2022-11-24T05:10:05.904Z,4.77
2022-11-24T05:11:05.879Z,4.76
2022-11-24T05:12:05.897Z,4.76
2022-11-24T05:13:05.815Z,4.77
2022-11-24T05:14:05.818Z,4.77
2022-11-24T05:15:05.955Z,4.80
2022-11-24T05:16:05.844Z,4.80
2022-11-24T05:17:06.348Z,4.84
2022-11-24T05:18:06.824Z,4.89
2022-11-24T05:19:09.327Z,4.92
2022-11-24T05:20:05.816Z,4.91
2022-11-24T05:21:05.842Z,4.91
2022-11-24T05:22:21.028Z,4.92
2022-11-24T05:23:05.848Z,4.91
2022-11-24T05:24:05.744Z,4.94
2022-11-24T05:25:05.979Z,4.94
2022-11-24T05:26:05.999Z,4.96
2022-11-24T05:27:05.669Z,4.96
2022-11-24T05:28:05.739Z,5.04
2022-11-24T05:29:06.792Z,5.04
2022-11-24T05:30:06.053Z,5.05
2022-11-24T05:31:05.761Z,5.05
2022-11-24T05:32:06.596Z,5.04
2022-11-24T05:33:05.737Z,5.04
2022-11-24T05:34:06.734Z,5.04
2022-11-24T05:35:05.833Z,5.07
2022-11-24T05:36:05.558Z,5.07
2022-11-24T05:37:06.551Z,5.07
2022-11-24T05:38:05.543Z,5.07
2022-11-24T05:39:06.430Z,5.10
2022-11-24T05:40:05.529Z,5.13
2022-11-24T05:41:05.455Z,5.16
2022-11-24T05:42:06.580Z,5.17
2022-11-24T05:43:05.445Z,5.19
2022-11-24T05:44:06.399Z,5.23
2022-11-24T05:45:06.390Z,5.30
2022-11-24T05:46:05.424Z,5.28
2022-11-24T05:47:05.626Z,5.32
2022-11-24T05:48:05.635Z,5.35
2022-11-24T05:49:05.358Z,5.38
2022-11-24T05:50:05.711Z,5.40
2022-11-24T05:51:09.245Z,5.40
2022-11-24T05:52:05.751Z,5.40
2022-11-24T05:53:05.831Z,5.41
2022-11-24T05:54:06.429Z,5.45
2022-11-24T05:55:05.729Z,5.45
2022-11-24T05:56:06.221Z,5.46
2022-11-24T05:57:05.342Z,5.45
2022-11-24T05:58:05.369Z,5.45
2022-11-24T05:59:09.607Z,5.45
2022-11-24T06:00:05.211Z,5.45
2022-11-24T06:01:05.553Z,5.46
2022-11-24T06:02:06.291Z,5.46
2022-11-24T06:03:05.955Z,5.46
2022-11-24T06:04:05.200Z,5.48
2022-11-24T06:05:05.900Z,5.48
2022-11-24T06:06:05.271Z,5.50
2022-11-24T06:07:06.095Z,5.52
2022-11-24T06:08:05.891Z,5.50
2022-11-24T06:09:05.570Z,5.49
2022-11-24T06:10:05.097Z,5.48
2022-11-24T06:11:05.052Z,5.45
2022-11-24T06:12:05.090Z,5.41
2022-11-24T06:13:06.211Z,5.40
2022-11-24T06:14:10.870Z,5.37
2022-11-24T06:15:06.091Z,5.32
2022-11-24T06:16:05.070Z,5.32
2022-11-24T06:17:05.770Z,5.31
2022-11-24T06:18:04.991Z,5.30
2022-11-24T06:19:13.753Z,5.27
2022-11-24T06:20:05.286Z,5.28
2022-11-24T06:21:12.304Z,5.23
2022-11-24T06:22:05.966Z,5.19
2022-11-24T06:23:05.107Z,5.19
2022-11-24T06:24:04.922Z,5.16
2022-11-24T06:25:05.202Z,5.16
2022-11-24T06:26:04.866Z,5.10
2022-11-24T06:27:04.937Z,5.12
2022-11-24T06:28:04.857Z,5.14
2022-11-24T06:29:04.833Z,5.16
2022-11-24T06:30:04.853Z,5.13
2022-11-24T06:31:04.863Z,5.12
2022-11-24T06:32:05.226Z,5.14
2022-11-24T06:33:04.906Z,5.14
2022-11-24T06:34:04.942Z,5.16
2022-11-24T06:35:04.765Z,5.19
2022-11-24T06:36:04.824Z,5.19
2022-11-24T06:37:04.768Z,5.22
2022-11-24T06:38:05.844Z,5.22
2022-11-24T06:39:05.323Z,5.27
2022-11-24T06:40:04.724Z,5.34
2022-11-24T06:41:04.676Z,5.37
2022-11-24T06:42:04.657Z,5.41
2022-11-24T06:43:04.656Z,5.43
2022-11-24T06:44:04.648Z,5.45
2022-11-24T06:45:08.725Z,5.46
2022-11-24T06:46:04.703Z,5.52
2022-11-24T06:47:04.628Z,5.56
2022-11-24T06:48:05.359Z,5.55
2022-11-24T06:49:04.987Z,5.59
2022-11-24T06:50:04.555Z,5.68
2022-11-24T06:51:04.606Z,5.67
2022-11-24T06:52:05.486Z,5.70
2022-11-24T06:53:04.527Z,5.75
2022-11-24T06:54:04.558Z,5.83
2022-11-24T06:55:04.694Z,5.88
2022-11-24T06:56:04.579Z,5.86
2022-11-24T06:57:04.503Z,5.86
2022-11-24T06:58:05.423Z,5.88
2022-11-24T06:59:04.466Z,5.88
2022-11-24T07:00:04.538Z,5.92
2022-11-24T07:01:04.962Z,5.96
2022-11-24T07:02:05.849Z,5.98
2022-11-24T07:03:04.475Z,5.96
2022-11-24T07:04:04.380Z,5.96
2022-11-24T07:05:04.391Z,5.98
2022-11-24T07:06:04.376Z,6.01
2022-11-24T07:07:05.581Z,6.03
2022-11-24T07:08:04.330Z,6.01
2022-11-24T07:09:04.354Z,6.01
2022-11-24T07:10:04.473Z,6.03
2022-11-24T07:11:04.292Z,6.04
2022-11-24T07:12:04.306Z,6.07
2022-11-24T07:13:05.539Z,6.06
2022-11-24T07:14:04.468Z,6.06
2022-11-24T07:15:04.283Z,6.09
2022-11-24T07:16:04.354Z,6.09
2022-11-24T07:17:04.767Z,6.09
2022-11-24T07:18:05.673Z,6.10
2022-11-24T07:19:04.203Z,6.11
2022-11-24T07:20:04.149Z,6.13
2022-11-24T07:21:04.619Z,6.16
2022-11-24T07:22:04.220Z,6.21
2022-11-24T07:23:04.182Z,6.21
2022-11-24T07:24:04.113Z,6.19
2022-11-24T07:25:04.104Z,6.16
2022-11-24T07:26:06.933Z,6.18
2022-11-24T07:27:04.790Z,6.16
2022-11-24T07:28:04.085Z,6.18
2022-11-24T07:29:04.043Z,6.18
2022-11-24T07:30:04.070Z,6.18
2022-11-24T07:31:04.105Z,6.14
2022-11-24T07:32:05.855Z,6.18
2022-11-24T07:33:04.311Z,6.14
2022-11-24T07:34:04.906Z,6.13
2022-11-24T07:35:03.969Z,6.13
2022-11-24T07:36:04.851Z,6.13
2022-11-24T07:37:03.965Z,6.18
2022-11-24T07:38:04.184Z,6.21
2022-11-24T07:39:05.074Z,6.22
2022-11-24T07:40:04.085Z,6.26
2022-11-24T07:41:03.894Z,6.28
2022-11-24T07:42:03.873Z,6.32
2022-11-24T07:43:03.919Z,6.33
2022-11-24T07:44:03.903Z,6.36
2022-11-24T07:45:03.889Z,6.38
2022-11-24T07:46:03.920Z,6.41
2022-11-24T07:47:03.825Z,6.43
2022-11-24T07:48:03.795Z,6.43
2022-11-24T07:49:03.936Z,6.46
2022-11-24T07:50:03.802Z,6.47
2022-11-24T07:51:03.916Z,6.50
2022-11-24T07:52:04.047Z,6.53
2022-11-24T07:53:03.787Z,6.54
2022-11-24T07:54:03.758Z,6.58
2022-11-24T07:55:03.726Z,6.61
2022-11-24T07:56:03.690Z,6.62
2022-11-24T07:57:03.748Z,6.62
2022-11-24T07:58:03.684Z,6.63
2022-11-24T07:59:03.797Z,6.65
2022-11-24T08:00:03.800Z,6.66
2022-11-24T08:01:03.817Z,6.69
2022-11-24T08:02:03.687Z,6.71
2022-11-24T08:03:03.757Z,6.73
2022-11-24T08:04:04.820Z,6.73
2022-11-24T08:05:03.610Z,6.76
2022-11-24T08:07:04.609Z,6.83
2022-11-24T08:08:03.528Z,6.86
2022-11-24T08:09:03.523Z,6.86
2022-11-24T08:10:03.498Z,6.89
2022-11-24T08:11:03.480Z,6.90
2022-11-24T08:12:03.479Z,6.91
2022-11-24T08:13:03.511Z,6.94
2022-11-24T08:14:03.469Z,6.97
2022-11-24T08:15:09.447Z,7.01
2022-11-24T08:16:04.437Z,7.04
2022-11-24T08:17:03.605Z,7.04
2022-11-24T08:18:03.438Z,7.04
2022-11-24T08:19:03.540Z,7.07
2022-11-24T08:20:03.417Z,7.07
2022-11-24T08:21:03.381Z,7.08
2022-11-24T08:22:25.987Z,7.09
2022-11-24T08:23:03.353Z,7.08
2022-11-24T08:24:03.362Z,7.08
2022-11-24T08:25:04.189Z,7.08
2022-11-24T08:26:03.314Z,7.07
2022-11-24T08:27:03.496Z,7.05
2022-11-24T08:28:03.292Z,7.05
2022-11-24T08:29:03.308Z,7.07
2022-11-24T08:30:03.332Z,7.08
2022-11-24T08:31:03.271Z,7.04
2022-11-24T08:32:03.398Z,7.02
2022-11-24T08:33:03.242Z,7.02
2022-11-24T08:34:03.253Z,7.05
2022-11-24T08:35:14.941Z,7.05
2022-11-24T08:36:04.176Z,7.07
2022-11-24T08:37:03.280Z,7.05
2022-11-24T08:38:04.770Z,7.05
2022-11-24T08:39:03.142Z,7.05
2022-11-24T08:40:03.212Z,7.08
2022-11-24T08:41:03.103Z,7.05
2022-11-24T08:42:03.256Z,7.05
2022-11-24T08:43:03.543Z,7.05
2022-11-24T08:44:03.083Z,7.05
2022-11-24T08:45:18.838Z,7.05
2022-11-24T08:46:04.059Z,7.08
2022-11-24T08:47:03.030Z,7.12
2022-11-24T08:48:03.147Z,7.13
2022-11-24T08:49:03.027Z,7.16
2022-11-24T08:50:03.046Z,7.17
2022-11-24T08:51:03.036Z,7.19
2022-11-24T08:52:02.981Z,7.20
2022-11-24T08:53:02.962Z,7.23
2022-11-24T08:54:03.029Z,7.26
2022-11-24T08:55:03.922Z,7.27
2022-11-24T08:56:02.973Z,7.29
2022-11-24T08:57:02.915Z,7.31
2022-11-24T08:58:02.946Z,7.29
2022-11-24T08:59:02.976Z,7.31
2022-11-24T09:00:02.850Z,7.31
2022-11-24T09:01:02.920Z,7.31
2022-11-24T09:02:02.998Z,7.31
2022-11-24T09:03:02.848Z,7.29
2022-11-24T09:04:02.959Z,7.29
2022-11-24T09:05:02.798Z,7.31
2022-11-24T09:06:02.979Z,7.31
2022-11-24T09:07:02.788Z,7.29
2022-11-24T09:08:02.858Z,7.32
2022-11-24T09:09:02.848Z,7.32
2022-11-24T09:10:02.733Z,7.31
2022-11-24T09:11:02.695Z,7.29
2022-11-24T09:12:02.726Z,7.29
2022-11-24T09:13:03.232Z,7.31
2022-11-24T09:14:02.722Z,7.32
2022-11-24T09:15:02.721Z,7.34
2022-11-24T09:16:02.688Z,7.37
2022-11-24T09:17:02.758Z,7.38
2022-11-24T09:18:03.767Z,7.38
2022-11-24T09:19:02.671Z,7.40
2022-11-24T09:20:03.570Z,7.38
2022-11-24T09:21:03.048Z,7.35
2022-11-24T09:22:02.707Z,7.37
2022-11-24T09:23:02.593Z,7.38
2022-11-24T09:24:02.602Z,7.40
2022-11-24T09:25:02.562Z,7.37
2022-11-24T09:26:02.722Z,7.37
2022-11-24T09:27:02.529Z,7.38
2022-11-24T09:28:02.510Z,7.41
2022-11-24T09:29:02.621Z,7.40
2022-11-24T09:30:02.507Z,7.41
2022-11-24T09:31:02.565Z,7.41
2022-11-24T09:32:06.795Z,7.45
2022-11-24T09:33:02.457Z,7.47
2022-11-24T09:34:02.421Z,7.47
2022-11-24T09:35:02.393Z,7.47
2022-11-24T09:36:02.381Z,7.49
2022-11-24T09:37:02.365Z,7.49
2022-11-24T09:38:02.405Z,7.50
2022-11-24T09:39:02.344Z,7.50
2022-11-24T09:40:03.249Z,7.52
2022-11-24T09:41:02.310Z,7.53
2022-11-24T09:42:02.304Z,7.50
2022-11-24T09:43:02.296Z,7.52
2022-11-24T09:44:02.384Z,7.53
2022-11-24T09:45:02.262Z,7.53
2022-11-24T09:46:05.792Z,7.53
2022-11-24T09:47:02.366Z,7.53
2022-11-24T09:48:02.272Z,7.55
2022-11-24T09:49:02.210Z,7.56
2022-11-24T09:50:02.241Z,7.58
2022-11-24T09:51:02.233Z,7.60
2022-11-24T09:52:02.177Z,7.63
2022-11-24T09:53:02.170Z,7.67
2022-11-24T09:54:02.152Z,7.69
2022-11-24T09:55:02.395Z,7.72
2022-11-24T09:56:02.189Z,7.77
2022-11-24T09:57:02.095Z,7.81
2022-11-24T09:58:02.095Z,7.87
2022-11-24T09:59:02.144Z,7.90
2022-11-24T10:00:02.127Z,7.93
2022-11-24T10:01:02.134Z,7.97
2022-11-24T10:02:02.260Z,7.97
2022-11-24T10:03:02.027Z,8.00
2022-11-24T10:04:06.279Z,8.04
2022-11-24T10:05:02.140Z,8.10
2022-11-24T10:06:01.988Z,8.12
2022-11-24T10:07:03.145Z,8.17
2022-11-24T10:08:01.972Z,8.18
2022-11-24T10:09:02.359Z,8.22
2022-11-24T10:10:02.069Z,8.26
2022-11-24T10:11:01.977Z,8.28
2022-11-24T10:12:01.912Z,8.29
2022-11-24T10:13:01.906Z,8.29
2022-11-24T10:14:01.888Z,8.35
2022-11-24T10:15:01.978Z,8.40
2022-11-24T10:16:01.971Z,8.45
2022-11-24T10:17:01.857Z,8.47
2022-11-24T10:18:01.882Z,8.53
2022-11-24T10:19:01.830Z,8.45
2022-11-24T10:20:01.899Z,8.62
2022-11-24T10:21:02.833Z,8.66
2022-11-24T10:22:01.808Z,8.72
2022-11-24T10:23:01.792Z,8.76
2022-11-24T10:24:02.158Z,8.81
2022-11-24T10:25:01.879Z,8.81
2022-11-24T10:26:01.735Z,8.84
2022-11-24T10:27:01.764Z,8.90
2022-11-24T10:28:01.751Z,8.94
2022-11-24T10:29:01.749Z,8.96
2022-11-24T10:30:01.849Z,8.99
2022-11-24T10:31:01.776Z,9.01
2022-11-24T10:32:02.798Z,9.05
2022-11-24T10:33:02.704Z,9.04
2022-11-24T10:34:01.627Z,9.10
2022-11-24T10:35:01.809Z,9.13
2022-11-24T10:36:01.626Z,9.20
2022-11-24T10:37:02.839Z,9.24
2022-11-24T10:38:01.576Z,9.27
2022-11-24T10:39:01.582Z,9.31
2022-11-24T10:40:01.562Z,9.35
2022-11-24T10:41:01.620Z,9.40
2022-11-24T10:42:01.553Z,9.43
2022-11-24T10:43:01.518Z,9.45
2022-11-24T10:44:01.524Z,9.50
2022-11-24T10:45:01.492Z,9.53
2022-11-24T10:46:01.558Z,9.57
2022-11-24T10:47:01.474Z,9.58
2022-11-24T10:48:01.553Z,9.61
2022-11-24T10:49:01.474Z,9.67
2022-11-24T10:50:01.453Z,9.73
2022-11-24T10:51:01.419Z,9.71
2022-11-24T10:52:01.570Z,9.71
2022-11-24T10:53:01.439Z,9.75
2022-11-24T10:54:01.369Z,9.76
2022-11-24T10:55:01.369Z,9.78
2022-11-24T10:56:01.339Z,9.79
2022-11-24T10:57:01.345Z,9.78
2022-11-24T10:58:01.335Z,9.79
2022-11-24T10:59:01.287Z,9.78
2022-11-24T11:00:01.338Z,9.78
2022-11-24T11:01:01.374Z,9.81
2022-11-24T11:02:01.412Z,9.86
2022-11-24T11:03:01.304Z,9.94
2022-11-24T11:04:01.258Z,9.97
2022-11-24T11:05:01.291Z,10.04
2022-11-24T11:06:01.318Z,10.06
2022-11-24T11:07:01.191Z,10.10
2022-11-24T11:08:05.455Z,10.14
2022-11-24T11:09:01.242Z,10.18
2022-11-24T11:10:01.182Z,10.21
2022-11-24T11:11:01.181Z,10.21
2022-11-24T11:12:10.027Z,10.24
2022-11-24T11:13:02.152Z,10.26
2022-11-24T11:14:04.308Z,10.26
2022-11-24T11:15:02.258Z,10.24
2022-11-24T11:16:01.079Z,10.28
2022-11-24T11:17:01.179Z,10.34
2022-11-24T11:18:01.230Z,10.37
2022-11-24T11:19:01.053Z,10.37
2022-11-24T11:20:02.531Z,10.37
2022-11-24T11:21:01.043Z,10.39
2022-11-24T11:22:01.006Z,10.37
2022-11-24T11:23:00.980Z,10.37
2022-11-24T11:24:00.978Z,10.39
2022-11-24T11:25:01.013Z,10.40
2022-11-24T11:26:00.963Z,10.40
2022-11-24T11:27:00.950Z,10.43
2022-11-24T11:28:04.192Z,10.44
2022-11-24T11:31:19.728Z,10.43
2022-11-24T11:34:04.597Z,10.44
2022-11-24T11:35:00.818Z,10.44
2022-11-24T11:36:00.877Z,10.47
2022-11-24T11:37:00.805Z,10.51
2022-11-24T11:38:01.588Z,10.55
2022-11-24T11:39:00.839Z,10.58
2022-11-24T11:40:00.783Z,10.62
2022-11-24T11:41:00.788Z,10.66
2022-11-24T11:42:00.729Z,10.66
2022-11-24T11:43:02.747Z,10.70
2022-11-24T11:44:00.726Z,10.70
2022-11-24T11:45:00.682Z,10.74
2022-11-24T11:46:00.901Z,10.74
2022-11-24T11:47:00.852Z,10.77
2022-11-24T11:48:00.647Z,10.81
2022-11-24T11:49:02.098Z,10.80
2022-11-24T11:50:00.763Z,10.80
2022-11-24T11:51:22.400Z,10.81
2022-11-24T11:52:01.613Z,10.80
2022-11-24T11:53:00.618Z,10.80
2022-11-24T11:54:00.663Z,10.80
2022-11-24T11:55:00.569Z,10.76
2022-11-24T11:56:00.576Z,10.73
2022-11-24T11:57:00.571Z,10.65
2022-11-24T11:58:00.538Z,10.55
2022-11-24T11:59:00.523Z,10.51
2022-11-24T12:00:00.488Z,10.44
2022-11-24T12:01:00.483Z,10.40
2022-11-24T12:02:00.517Z,10.34
2022-11-24T12:03:00.576Z,10.32
2022-11-24T12:04:00.619Z,10.25
2022-11-24T12:05:00.498Z,10.19
2022-11-24T12:06:00.413Z,10.19
2022-11-24T12:07:00.430Z,10.18
2022-11-24T12:08:04.911Z,10.17
2022-11-24T12:09:19.852Z,10.12
2022-11-24T12:10:01.362Z,10.09
2022-11-24T12:11:00.354Z,10.10
2022-11-24T12:12:00.328Z,10.10
2022-11-24T12:13:00.324Z,10.12
2022-11-24T12:14:00.373Z,10.14
2022-11-24T12:15:01.759Z,10.15
2022-11-24T12:16:00.479Z,10.14
2022-11-24T12:17:00.263Z,10.17
2022-11-24T12:18:00.271Z,10.18
2022-11-24T12:19:00.288Z,10.21
2022-11-24T12:20:00.230Z,10.24
2022-11-24T12:21:00.312Z,10.28
2022-11-24T12:22:00.200Z,10.33
2022-11-24T12:23:00.194Z,10.37
2022-11-24T12:24:00.206Z,10.39
2022-11-24T12:25:00.267Z,10.39
2022-11-24T12:26:00.144Z,10.43
2022-11-24T12:27:00.181Z,10.51
2022-11-24T12:28:00.116Z,10.58
2022-11-24T12:29:00.181Z,10.63
2022-11-24T12:30:00.114Z,10.68
2022-11-24T12:31:00.164Z,10.76
2022-11-24T12:32:00.085Z,10.81
2022-11-24T12:33:00.121Z,10.88
2022-11-24T12:34:01.523Z,10.95
2022-11-24T12:35:00.047Z,11.01
2022-11-24T12:36:00.017Z,10.98
2022-11-24T12:37:01.087Z,11.01
2022-11-24T12:38:00.011Z,11.07
2022-11-24T12:38:59.968Z,11.10
2022-11-24T12:40:00.002Z,11.13
2022-11-24T12:41:25.414Z,11.11
2022-11-24T12:42:00.987Z,11.07
2022-11-24T12:42:59.972Z,11.03
2022-11-24T12:43:59.912Z,11.01
2022-11-24T12:44:59.948Z,10.96
2022-11-24T12:45:59.899Z,10.91
2022-11-24T12:46:59.933Z,10.84
2022-11-24T12:47:59.882Z,10.80
2022-11-24T12:48:59.870Z,10.78
2022-11-24T12:49:59.876Z,10.77
2022-11-24T12:50:59.857Z,10.76
2022-11-24T12:51:59.819Z,10.74
2022-11-24T12:52:59.833Z,10.71
2022-11-24T12:53:59.801Z,10.73
2022-11-24T12:54:59.830Z,10.73
2022-11-24T12:55:59.776Z,10.74
2022-11-24T12:56:59.893Z,10.76
2022-11-24T12:57:59.759Z,10.80
2022-11-24T12:58:59.742Z,10.80
2022-11-24T12:59:59.723Z,10.83
2022-11-24T13:00:59.831Z,10.80
2022-11-24T13:01:59.850Z,10.77
2022-11-24T13:02:59.907Z,10.78
2022-11-24T13:03:59.665Z,10.73
2022-11-24T13:04:59.730Z,10.71
2022-11-24T13:05:59.663Z,10.63
2022-11-24T13:06:59.650Z,10.60
2022-11-24T13:07:59.663Z,10.59
2022-11-24T13:09:00.534Z,10.58
2022-11-24T13:10:00.345Z,10.58
2022-11-24T13:10:59.554Z,10.59
2022-11-24T13:12:03.550Z,10.60
2022-11-24T13:12:59.575Z,10.60
2022-11-24T13:13:59.591Z,10.60
2022-11-24T13:14:59.544Z,10.63
2022-11-24T13:18:10.640Z,10.62
2022-11-24T13:19:00.565Z,10.62
2022-11-24T13:19:59.892Z,10.62
2022-11-24T13:20:59.501Z,10.62
2022-11-24T13:21:59.586Z,10.62